createdAt,value
2023-05-05T00:02:26.341Z,15.49
2023-05-05T00:05:39.553Z,15.42
2023-05-05T00:08:10.515Z,15.35
2023-05-05T00:10:36.954Z,15.30
2023-05-05T00:13:07.877Z,15.29
2023-05-05T00:15:45.393Z,15.29
2023-05-05T00:18:14.618Z,15.28
2023-05-05T00:20:46.056Z,15.27
2023-05-05T00:23:13.703Z,15.27
2023-05-05T00:25:43.869Z,15.23
2023-05-05T00:28:17.000Z,15.22
2023-05-05T00:30:43.881Z,15.19
2023-05-05T00:33:11.253Z,15.14
2023-05-05T00:35:38.138Z,15.13
2023-05-05T00:38:05.724Z,15.09
2023-05-05T00:40:32.737Z,15.04
2023-05-05T00:43:06.919Z,15.11
2023-05-05T00:45:37.547Z,15.15
2023-05-05T00:48:05.350Z,15.08
2023-05-05T00:50:38.575Z,15.07
2023-05-05T00:53:10.497Z,15.03
2023-05-05T00:58:20.144Z,15.05
2023-05-05T01:00:47.558Z,15.02
2023-05-05T01:03:19.104Z,14.98
2023-05-05T01:06:14.265Z,14.97
2023-05-05T01:09:02.941Z,15.04
2023-05-05T01:11:51.820Z,15.03
2023-05-05T01:14:35.207Z,15.03
2023-05-05T01:17:24.766Z,15.09
2023-05-05T01:20:12.932Z,15.15
2023-05-05T01:22:52.158Z,15.17
2023-05-05T01:26:04.385Z,15.18
2023-05-05T01:28:58.303Z,15.21
2023-05-05T01:31:54.948Z,15.23
2023-05-05T01:34:29.885Z,15.27
2023-05-05T01:37:09.174Z,15.29
2023-05-05T01:39:37.682Z,15.33
2023-05-05T01:42:23.294Z,15.35
2023-05-05T01:44:52.691Z,15.34
2023-05-05T01:47:24.785Z,15.36
2023-05-05T01:55:24.440Z,15.41
2023-05-05T01:57:56.907Z,15.43
2023-05-05T02:00:25.203Z,15.44
2023-05-05T02:08:23.414Z,15.43
2023-05-05T02:11:15.440Z,15.44
2023-05-05T02:13:50.457Z,15.45
2023-05-05T02:16:18.992Z,15.49
2023-05-05T02:18:55.756Z,15.49
2023-05-05T02:21:23.628Z,15.48
2023-05-05T02:23:52.146Z,15.47
2023-05-05T02:26:21.948Z,15.46
2023-05-05T02:28:59.832Z,15.38
2023-05-05T02:31:39.017Z,15.35
2023-05-05T02:34:08.004Z,15.36
2023-05-05T02:36:39.888Z,15.34
2023-05-05T02:39:14.358Z,15.31
2023-05-05T02:41:43.347Z,15.28
2023-05-05T02:44:13.526Z,15.24
2023-05-05T02:46:41.761Z,15.21
2023-05-05T02:49:12.424Z,15.19
2023-05-05T02:51:39.233Z,15.17
2023-05-05T02:54:06.732Z,15.16
2023-05-05T02:56:52.216Z,15.08
2023-05-05T02:59:47.768Z,15.06
2023-05-05T03:02:42.292Z,15.00
2023-05-05T03:05:47.832Z,14.93
2023-05-05T03:08:37.886Z,14.84
2023-05-05T03:11:19.571Z,14.78
2023-05-05T03:13:51.472Z,14.73
2023-05-05T03:16:20.668Z,14.71
2023-05-05T03:18:57.277Z,14.62
2023-05-05T03:21:25.546Z,14.61
2023-05-05T03:24:15.744Z,14.57
2023-05-05T03:26:44.880Z,14.54
2023-05-05T03:29:15.364Z,14.53
2023-05-05T03:31:48.170Z,14.45
2023-05-05T03:34:15.026Z,14.38
2023-05-05T03:36:41.539Z,14.37
2023-05-05T03:39:46.378Z,14.33
2023-05-05T03:42:34.434Z,14.34
2023-05-05T03:45:02.677Z,14.34
2023-05-05T03:47:29.464Z,14.31
2023-05-05T03:49:58.048Z,14.29
2023-05-05T03:52:24.876Z,14.24
2023-05-05T03:54:52.569Z,14.22
2023-05-05T03:57:23.960Z,14.18
2023-05-05T03:59:57.891Z,14.12
2023-05-05T04:02:28.029Z,14.10
2023-05-05T04:04:58.024Z,14.09
2023-05-05T04:07:40.048Z,14.09
2023-05-05T04:13:11.429Z,14.06
2023-05-05T04:15:41.103Z,14.04
2023-05-05T04:18:09.319Z,14.01
2023-05-05T04:20:36.915Z,14.01
2023-05-05T04:23:12.393Z,13.99
2023-05-05T04:25:47.106Z,13.94
2023-05-05T04:28:14.031Z,13.91
2023-05-05T04:30:46.678Z,13.92
2023-05-05T04:33:20.466Z,13.93
2023-05-05T04:35:50.511Z,13.91
2023-05-05T04:38:21.973Z,13.88
2023-05-05T04:40:53.648Z,13.88
2023-05-05T04:43:24.143Z,13.88
2023-05-05T04:46:06.910Z,13.83
2023-05-05T04:49:05.002Z,13.81
2023-05-05T04:51:33.740Z,13.80
2023-05-05T04:54:04.462Z,13.84
2023-05-05T04:56:32.368Z,13.85
2023-05-05T04:59:03.467Z,13.83
2023-05-05T05:01:35.721Z,13.84
2023-05-05T05:04:06.687Z,13.86
2023-05-05T05:06:37.041Z,13.88
2023-05-05T05:09:05.809Z,13.90
2023-05-05T05:11:35.942Z,13.90
2023-05-05T05:14:05.780Z,13.92
2023-05-05T05:16:39.587Z,13.95
2023-05-05T05:19:06.384Z,13.96
2023-05-05T05:21:33.657Z,13.99
2023-05-05T05:24:03.160Z,14.03
2023-05-05T05:26:34.645Z,14.10
2023-05-05T05:29:06.984Z,14.18
2023-05-05T05:31:37.938Z,14.21
2023-05-05T05:34:12.928Z,14.22
2023-05-05T05:36:44.996Z,14.30
2023-05-05T05:39:16.139Z,14.37
2023-05-05T05:41:46.171Z,14.41
2023-05-05T05:44:38.382Z,14.45
2023-05-05T05:47:12.259Z,14.50
2023-05-05T05:49:40.487Z,14.54
2023-05-05T05:52:09.958Z,14.57
2023-05-05T05:54:41.689Z,14.66
2023-05-05T05:57:34.703Z,14.70
2023-05-05T06:00:08.115Z,14.76
2023-05-05T06:02:37.259Z,14.83
2023-05-05T06:05:14.823Z,14.88
2023-05-05T06:07:42.938Z,14.94
2023-05-05T06:10:25.593Z,15.00
2023-05-05T06:12:54.066Z,15.06
2023-05-05T06:15:25.990Z,15.14
2023-05-05T06:18:00.113Z,15.18
2023-05-05T06:20:30.454Z,15.28
2023-05-05T06:23:01.804Z,15.35
2023-05-05T06:25:29.335Z,15.44
2023-05-05T06:27:59.577Z,15.51
2023-05-05T06:30:32.387Z,15.60
2023-05-05T06:32:59.428Z,15.69
2023-05-05T06:35:28.116Z,15.76
2023-05-05T06:37:54.715Z,15.83
2023-05-05T06:40:27.251Z,15.88
2023-05-05T06:42:57.903Z,15.93
2023-05-05T06:45:32.423Z,16.00
2023-05-05T06:48:05.243Z,16.07
2023-05-05T06:50:34.753Z,16.15
2023-05-05T06:53:11.656Z,16.18
2023-05-05T06:55:48.426Z,16.26
2023-05-05T06:58:22.183Z,16.37
2023-05-05T07:00:51.650Z,16.44
2023-05-05T07:03:21.031Z,16.51
2023-05-05T07:05:53.899Z,16.58
2023-05-05T07:08:23.581Z,16.65
2023-05-05T07:10:55.256Z,16.69
2023-05-05T07:16:13.776Z,16.83
2023-05-05T07:18:44.074Z,16.85
2023-05-05T07:21:11.029Z,16.92
2023-05-05T07:24:03.242Z,16.93
2023-05-05T07:26:31.157Z,16.97
2023-05-05T07:28:59.364Z,16.96
2023-05-05T07:31:30.210Z,16.89
2023-05-05T07:33:58.083Z,16.97
2023-05-05T07:36:27.961Z,17.05
2023-05-05T07:38:59.346Z,17.14
2023-05-05T07:41:28.663Z,17.20
2023-05-05T07:43:55.797Z,17.19
2023-05-05T07:46:28.193Z,17.25
2023-05-05T07:48:55.320Z,17.39
2023-05-05T07:51:27.152Z,17.50
2023-05-05T07:53:56.675Z,17.56
2023-05-05T07:56:23.701Z,17.60
2023-05-05T07:58:55.664Z,17.64
2023-05-05T08:01:26.366Z,17.76
2023-05-05T08:03:55.788Z,17.84
2023-05-05T08:06:24.901Z,17.99
2023-05-05T08:08:57.152Z,18.11
2023-05-05T08:11:29.470Z,18.24
2023-05-05T08:13:59.373Z,18.33
2023-05-05T08:16:26.181Z,18.50
2023-05-05T08:19:28.787Z,18.63
2023-05-05T08:21:58.876Z,18.72
2023-05-05T08:24:39.313Z,18.78
2023-05-05T08:32:40.390Z,19.18
2023-05-05T08:35:09.325Z,19.23
2023-05-05T08:37:36.452Z,19.05
2023-05-05T08:40:11.183Z,18.96
2023-05-05T08:42:39.440Z,18.90
2023-05-05T08:45:16.669Z,18.84
2023-05-05T08:47:44.689Z,18.85
2023-05-05T08:50:12.616Z,18.87
2023-05-05T08:52:42.060Z,18.82
2023-05-05T08:55:21.224Z,18.82
2023-05-05T08:57:58.466Z,18.89
2023-05-05T09:00:30.327Z,18.93
2023-05-05T09:03:03.388Z,19.01
2023-05-05T09:05:34.967Z,19.05
2023-05-05T09:08:08.284Z,18.99
2023-05-05T09:10:36.686Z,18.96
2023-05-05T09:13:07.351Z,18.92
2023-05-05T09:15:37.944Z,18.91
2023-05-05T09:18:09.724Z,18.96
2023-05-05T09:20:40.268Z,18.92
2023-05-05T09:23:20.894Z,18.89
2023-05-05T09:26:07.295Z,18.91
2023-05-05T09:28:35.106Z,18.93
2023-05-05T09:31:19.956Z,19.02
2023-05-05T09:33:51.858Z,19.07
2023-05-05T09:36:18.781Z,19.07
2023-05-05T09:39:09.228Z,19.04
2023-05-05T09:41:41.459Z,18.97
2023-05-05T09:44:09.762Z,18.94
2023-05-05T09:47:07.234Z,18.89
2023-05-05T09:49:46.246Z,18.86
2023-05-05T09:52:20.097Z,18.76
2023-05-05T09:54:59.251Z,18.69
2023-05-05T09:57:35.191Z,18.73
2023-05-05T10:00:15.008Z,18.76
2023-05-05T10:02:43.508Z,18.79
2023-05-05T10:05:17.889Z,18.81
2023-05-05T10:07:48.265Z,18.86
2023-05-05T10:10:17.217Z,18.80
2023-05-05T10:12:52.785Z,18.78
2023-05-05T10:15:25.482Z,18.40
2023-05-05T10:18:07.074Z,17.78
2023-05-05T10:20:45.854Z,17.43
2023-05-05T10:23:15.792Z,17.02
2023-05-05T10:25:50.806Z,16.53
2023-05-05T10:28:27.502Z,16.18
2023-05-05T10:31:25.197Z,15.97
2023-05-05T10:48:38.227Z,15.76
2023-05-05T12:05:43.919Z,15.19
2023-05-05T12:21:21.686Z,15.20
2023-05-05T12:24:38.806Z,15.18
2023-05-05T12:27:09.627Z,15.13
2023-05-05T12:29:36.427Z,15.16
2023-05-05T12:32:04.371Z,15.18
2023-05-05T12:34:35.780Z,15.20
2023-05-05T12:37:21.765Z,15.19
2023-05-05T12:39:52.233Z,15.19
2023-05-05T12:46:18.119Z,15.20
2023-05-05T12:48:47.958Z,15.16
2023-05-05T12:51:28.926Z,15.15
2023-05-05T12:54:27.679Z,15.16
2023-05-05T12:57:10.538Z,15.18
2023-05-05T12:59:37.024Z,15.21
2023-05-05T13:33:03.588Z,15.25
2023-05-05T13:35:32.129Z,15.31
2023-05-05T13:38:01.046Z,15.32
2023-05-05T13:40:29.302Z,15.35
2023-05-05T13:42:59.236Z,15.35
2023-05-05T13:49:09.812Z,15.28
2023-05-05T13:51:37.683Z,15.28
2023-05-05T13:57:01.075Z,15.17
2023-05-05T13:59:29.971Z,15.16
2023-05-05T14:40:36.541Z,14.61
2023-05-05T14:43:03.091Z,14.63
2023-05-05T14:45:34.652Z,14.69
2023-05-05T14:48:01.621Z,14.69
2023-05-05T14:50:28.619Z,14.85
2023-05-05T14:52:59.166Z,14.95
2023-05-05T14:55:26.904Z,15.02
2023-05-05T14:57:59.009Z,15.15
2023-05-05T15:00:30.296Z,15.32
2023-05-05T15:03:03.876Z,15.32
2023-05-05T15:05:38.132Z,15.34
2023-05-05T15:08:06.751Z,15.35
2023-05-05T15:10:33.557Z,15.39
2023-05-05T15:13:04.182Z,15.42
2023-05-05T15:15:31.291Z,15.37
2023-05-05T15:17:58.651Z,15.35
2023-05-05T15:20:25.584Z,15.30
2023-05-05T15:23:02.601Z,15.19
2023-05-05T15:25:31.193Z,15.20
2023-05-05T15:28:00.783Z,15.26
2023-05-05T15:30:36.630Z,15.33
2023-05-05T15:44:33.179Z,15.75
2023-05-05T15:47:00.151Z,15.78
2023-05-05T15:49:35.313Z,15.75
2023-05-05T15:52:02.640Z,15.57
2023-05-05T15:54:31.215Z,15.59
2023-05-05T16:12:04.193Z,15.55
2023-05-05T16:14:36.713Z,15.68
2023-05-05T16:17:03.330Z,15.81
2023-05-05T16:23:04.531Z,16.08
2023-05-05T16:25:31.030Z,16.09
2023-05-05T16:30:55.668Z,16.01
2023-05-05T16:33:33.894Z,16.09
2023-05-05T16:36:03.558Z,16.10
2023-05-05T16:38:52.237Z,16.17
2023-05-05T16:41:26.136Z,16.27
2023-05-05T16:43:59.957Z,16.38
2023-05-05T16:46:27.234Z,16.45
2023-05-05T16:48:54.600Z,16.49
2023-05-05T16:51:41.884Z,16.48
2023-05-05T16:54:09.311Z,16.54
2023-05-05T16:56:36.130Z,16.53
2023-05-05T16:59:05.271Z,16.53
2023-05-05T17:01:35.279Z,16.50
2023-05-05T17:04:06.131Z,16.50
2023-05-05T17:06:39.004Z,16.48
2023-05-05T17:09:08.742Z,16.53
2023-05-05T17:21:15.858Z,16.44
2023-05-05T17:23:42.585Z,16.39
2023-05-05T17:26:09.752Z,16.38
2023-05-05T17:28:36.768Z,16.35
2023-05-05T17:31:03.504Z,16.36
2023-05-05T17:33:30.860Z,16.39
2023-05-05T17:36:01.051Z,16.44
2023-05-05T17:38:27.940Z,16.44
2023-05-05T17:41:02.432Z,16.46
2023-05-05T17:43:29.628Z,16.44
2023-05-05T17:46:00.241Z,16.42
2023-05-05T17:48:33.449Z,16.35
2023-05-05T17:51:05.881Z,16.29
2023-05-05T17:53:35.136Z,16.28
2023-05-05T17:56:03.148Z,16.23
2023-05-05T18:04:42.201Z,16.12
2023-05-05T18:07:08.787Z,16.12
2023-05-05T18:09:36.057Z,16.10
2023-05-05T18:12:03.628Z,16.08
2023-05-05T18:14:30.375Z,16.03
2023-05-05T18:16:56.697Z,16.02
2023-05-05T18:19:23.792Z,16.03
2023-05-05T18:21:52.428Z,15.95
2023-05-05T18:24:20.473Z,15.88
2023-05-05T18:26:50.060Z,15.85
2023-05-05T18:29:17.855Z,15.85
2023-05-05T18:31:53.054Z,15.81
2023-05-05T18:34:20.623Z,15.75
2023-05-05T18:36:47.796Z,15.72
2023-05-05T18:39:14.739Z,15.71
2023-05-05T18:41:41.195Z,15.58
2023-05-05T18:44:07.841Z,15.50
2023-05-05T18:46:34.370Z,15.43
2023-05-05T18:49:00.903Z,15.38
2023-05-05T18:51:28.131Z,15.30
2023-05-05T18:53:54.787Z,15.21
2023-05-05T18:56:21.680Z,15.14
2023-05-05T18:58:48.625Z,15.08
2023-05-05T19:01:16.047Z,15.03
2023-05-05T19:03:45.787Z,15.00
2023-05-05T19:06:12.305Z,14.98
2023-05-05T19:08:38.842Z,14.99
2023-05-05T19:11:05.286Z,14.89
2023-05-05T19:13:31.747Z,14.82
2023-05-05T19:15:58.339Z,14.76
2023-05-05T19:18:25.165Z,14.72
2023-05-05T19:20:51.577Z,14.65
2023-05-05T19:23:17.977Z,14.58
2023-05-05T19:25:44.464Z,14.52
2023-05-05T19:28:11.236Z,14.44
2023-05-05T19:30:37.735Z,14.39
2023-05-05T19:33:04.358Z,14.32
2023-05-05T19:35:31.321Z,14.23
2023-05-05T19:37:57.781Z,14.23
2023-05-05T19:40:24.217Z,14.29
2023-05-05T19:42:50.629Z,14.23
2023-05-05T19:45:17.218Z,14.21
2023-05-05T19:47:43.671Z,14.24
2023-05-05T19:50:26.227Z,14.25
2023-05-05T19:52:54.470Z,14.30
2023-05-05T19:55:21.937Z,14.26
2023-05-05T19:57:48.352Z,14.26
2023-05-05T20:00:15.001Z,14.27
2023-05-05T20:02:41.849Z,14.21
2023-05-05T20:05:09.890Z,14.14
2023-05-05T20:07:36.311Z,14.13
2023-05-05T20:10:05.187Z,14.20
2023-05-05T20:12:31.578Z,14.25
2023-05-05T20:14:58.173Z,14.25
2023-05-05T20:17:33.501Z,14.23
2023-05-05T20:20:00.044Z,14.16
2023-05-05T20:22:28.839Z,14.12
2023-05-05T20:24:55.142Z,14.09
2023-05-05T20:27:21.525Z,13.96
2023-05-05T20:29:48.202Z,13.83
2023-05-05T20:32:15.725Z,13.71
2023-05-05T20:34:42.171Z,13.65
2023-05-05T20:37:08.698Z,13.59
2023-05-05T20:39:35.484Z,13.52
2023-05-05T20:42:02.585Z,13.45
2023-05-05T20:44:28.916Z,13.42
2023-05-05T20:46:55.466Z,13.37
2023-05-05T20:49:21.924Z,13.36
2023-05-05T20:51:48.284Z,13.32
2023-05-05T20:54:14.711Z,13.26
2023-05-05T20:56:41.149Z,13.26
2023-05-05T20:59:07.484Z,13.22
2023-05-05T21:01:34.533Z,13.17
2023-05-05T21:04:01.421Z,13.14
2023-05-05T21:06:27.805Z,13.17
2023-05-05T21:08:54.205Z,13.15
2023-05-05T21:11:21.369Z,13.10
2023-05-05T21:13:47.838Z,13.07
2023-05-05T21:16:14.266Z,13.05
2023-05-05T21:18:40.760Z,13.00
2023-05-05T21:21:07.363Z,12.98
2023-05-05T21:23:33.794Z,13.04
2023-05-05T21:26:02.299Z,13.01
2023-05-05T21:28:28.808Z,12.95
2023-05-05T21:31:19.644Z,12.90
2023-05-05T21:33:41.486Z,12.86
2023-05-05T21:36:08.246Z,12.81
2023-05-05T21:38:34.624Z,12.78
2023-05-05T21:41:01.050Z,12.74
2023-05-05T21:43:30.795Z,12.71
2023-05-05T21:46:04.726Z,12.72
2023-05-05T21:48:31.750Z,12.73
2023-05-05T21:50:58.155Z,12.63
2023-05-05T21:53:24.531Z,12.59
2023-05-05T21:55:51.470Z,12.58
2023-05-05T21:58:17.925Z,12.59
2023-05-05T22:00:44.963Z,12.62
2023-05-05T22:03:11.646Z,12.61
2023-05-05T22:05:38.379Z,12.56
2023-05-05T22:08:04.875Z,12.50
2023-05-05T22:10:31.333Z,12.47
2023-05-05T22:12:58.143Z,12.44
2023-05-05T22:15:27.617Z,12.40
2023-05-05T22:17:56.560Z,12.40
2023-05-05T22:20:26.092Z,12.36
2023-05-05T22:22:52.498Z,12.33
2023-05-05T22:25:18.955Z,12.28
2023-05-05T22:27:45.538Z,12.27
2023-05-05T22:30:12.566Z,12.28
2023-05-05T22:32:39.853Z,12.27
2023-05-05T22:35:07.237Z,12.21
2023-05-05T22:37:33.649Z,12.18
2023-05-05T22:39:59.973Z,12.17
2023-05-05T22:42:26.701Z,12.16
2023-05-05T22:44:53.339Z,12.20
2023-05-05T22:47:19.804Z,12.29
2023-05-05T22:49:46.402Z,12.29
2023-05-05T22:52:12.975Z,12.21
2023-05-05T22:54:42.074Z,12.17
2023-05-05T22:57:08.412Z,12.19
2023-05-05T22:59:34.777Z,12.22
2023-05-05T23:02:01.179Z,12.29
2023-05-05T23:04:27.624Z,12.33
2023-05-05T23:06:53.997Z,12.33
2023-05-05T23:09:23.608Z,12.30
2023-05-05T23:11:49.994Z,12.29
2023-05-05T23:14:19.210Z,12.28
2023-05-05T23:16:46.192Z,12.31
2023-05-05T23:19:13.594Z,12.29
2023-05-05T23:21:52.194Z,12.31
2023-05-05T23:24:19.951Z,12.29
2023-05-05T23:26:46.403Z,12.27
2023-05-05T23:29:12.779Z,12.27
2023-05-05T23:31:39.114Z,12.26
2023-05-05T23:34:05.586Z,12.26
2023-05-05T23:36:31.936Z,12.27
2023-05-05T23:38:58.362Z,12.27
2023-05-05T23:41:27.677Z,12.26
2023-05-05T23:43:54.086Z,12.23
2023-05-05T23:46:20.652Z,12.23
2023-05-05T23:48:47.160Z,12.25
2023-05-05T23:51:13.489Z,12.25
2023-05-05T23:53:39.888Z,12.25
2023-05-05T23:56:06.891Z,12.26
2023-05-05T23:58:33.281Z,12.26
